createdAt,value
2023-01-29T00:01:45.450Z,65.74
2023-01-29T00:04:16.925Z,65.73
2023-01-29T00:06:47.571Z,65.91
2023-01-29T00:09:18.680Z,66.16
2023-01-29T00:11:49.487Z,66.22
2023-01-29T00:14:20.338Z,66.30
2023-01-29T00:16:51.881Z,66.68
2023-01-29T00:19:23.718Z,66.51
2023-01-29T00:22:01.022Z,66.56
2023-01-29T00:24:31.871Z,65.90
2023-01-29T00:27:03.182Z,65.50
2023-01-29T00:29:34.032Z,65.31
2023-01-29T00:32:05.597Z,65.28
2023-01-29T00:34:36.412Z,65.37
2023-01-29T00:37:08.991Z,65.58
2023-01-29T00:39:47.923Z,65.62
2023-01-29T00:42:36.826Z,65.39
2023-01-29T00:45:10.964Z,65.88
2023-01-29T00:47:41.695Z,65.15
2023-01-29T00:50:14.624Z,65.14
2023-01-29T00:52:46.019Z,65.11
2023-01-29T00:55:16.878Z,65.20
2023-01-29T00:57:47.584Z,65.57
2023-01-29T01:00:20.494Z,65.42
2023-01-29T01:03:09.681Z,65.44
2023-01-29T01:05:40.312Z,65.26
2023-01-29T01:08:25.730Z,65.30
2023-01-29T01:11:04.303Z,65.15
2023-01-29T01:13:36.332Z,65.25
2023-01-29T01:16:12.424Z,65.13
2023-01-29T01:18:43.899Z,65.38
2023-01-29T01:21:14.981Z,65.67
2023-01-29T01:23:47.258Z,65.48
2023-01-29T01:26:17.986Z,65.30
2023-01-29T01:28:48.683Z,65.25
2023-01-29T01:31:19.858Z,65.09
2023-01-29T01:33:51.625Z,65.10
2023-01-29T01:36:24.134Z,64.99
2023-01-29T01:38:55.033Z,65.18
2023-01-29T01:41:25.698Z,65.10
2023-01-29T01:43:58.596Z,64.93
2023-01-29T01:46:31.932Z,64.79
2023-01-29T01:49:02.835Z,64.42
2023-01-29T01:51:36.406Z,64.49
2023-01-29T01:54:12.238Z,64.62
2023-01-29T01:56:45.940Z,64.71
2023-01-29T01:59:20.179Z,64.60
2023-01-29T02:01:55.079Z,64.54
2023-01-29T02:04:45.301Z,64.48
2023-01-29T02:07:34.819Z,64.70
2023-01-29T02:10:11.716Z,64.41
2023-01-29T02:12:44.272Z,64.96
2023-01-29T02:15:15.428Z,64.76
2023-01-29T02:17:48.451Z,64.88
2023-01-29T02:20:24.408Z,65.24
2023-01-29T02:23:30.730Z,65.40
2023-01-29T02:26:16.670Z,64.92
2023-01-29T02:28:53.849Z,64.92
2023-01-29T02:31:34.822Z,64.94
2023-01-29T02:34:13.046Z,65.14
2023-01-29T02:36:51.746Z,65.51
2023-01-29T02:39:30.237Z,65.15
2023-01-29T02:42:12.330Z,65.28
2023-01-29T02:44:49.370Z,65.39
2023-01-29T02:47:23.880Z,65.57
2023-01-29T02:50:07.784Z,65.65
2023-01-29T02:52:49.749Z,65.77
2023-01-29T02:55:26.948Z,65.71
2023-01-29T02:58:02.604Z,65.90
2023-01-29T03:00:39.690Z,66.13
2023-01-29T03:03:15.669Z,66.32
2023-01-29T03:05:58.209Z,66.30
2023-01-29T03:08:43.342Z,66.44
2023-01-29T03:11:16.453Z,66.30
2023-01-29T03:13:53.917Z,66.37
2023-01-29T03:16:33.071Z,66.35
2023-01-29T03:19:10.483Z,66.57
2023-01-29T03:21:59.548Z,66.58
2023-01-29T03:24:58.949Z,66.37
2023-01-29T03:27:52.091Z,66.43
2023-01-29T03:30:44.034Z,66.15
2023-01-29T03:33:46.998Z,65.95
2023-01-29T03:36:23.263Z,65.91
2023-01-29T03:38:54.082Z,66.11
2023-01-29T03:41:34.314Z,65.93
2023-01-29T03:44:16.349Z,66.19
2023-01-29T03:46:53.735Z,66.18
2023-01-29T03:49:33.725Z,66.18
2023-01-29T03:52:10.745Z,66.01
2023-01-29T03:54:48.963Z,66.11
2023-01-29T03:57:29.335Z,65.97
2023-01-29T04:00:10.023Z,65.80
2023-01-29T04:03:08.353Z,65.68
2023-01-29T04:05:45.021Z,66.16
2023-01-29T04:08:27.674Z,65.33
2023-01-29T04:11:03.271Z,65.73
2023-01-29T04:13:35.832Z,66.18
2023-01-29T04:16:13.117Z,65.86
2023-01-29T04:19:00.180Z,66.10
2023-01-29T04:21:37.621Z,65.65
2023-01-29T04:24:10.760Z,65.88
2023-01-29T04:26:56.722Z,65.35
2023-01-29T04:29:41.637Z,65.70
2023-01-29T04:32:19.960Z,66.16
2023-01-29T04:35:01.434Z,66.28
2023-01-29T04:37:41.572Z,66.14
2023-01-29T04:40:21.292Z,66.09
2023-01-29T04:43:05.227Z,66.22
2023-01-29T04:45:43.593Z,66.15
2023-01-29T04:48:23.836Z,65.88
2023-01-29T04:51:01.991Z,66.12
2023-01-29T04:53:45.606Z,66.11
2023-01-29T04:56:22.521Z,66.41
2023-01-29T04:58:56.899Z,66.24
2023-01-29T05:01:33.186Z,66.91
2023-01-29T05:04:07.812Z,66.68
2023-01-29T05:06:40.603Z,66.83
2023-01-29T05:09:14.014Z,66.52
2023-01-29T05:11:43.744Z,66.64
2023-01-29T05:14:18.125Z,66.19
2023-01-29T05:16:52.807Z,66.23
2023-01-29T05:19:23.542Z,66.12
2023-01-29T05:21:55.236Z,65.88
2023-01-29T05:24:29.062Z,66.10
2023-01-29T05:27:17.669Z,66.19
2023-01-29T05:29:49.894Z,65.82
2023-01-29T05:32:20.584Z,65.80
2023-01-29T05:34:51.221Z,66.29
2023-01-29T05:37:22.150Z,66.54
2023-01-29T05:39:52.787Z,66.37
2023-01-29T05:42:24.236Z,66.84
2023-01-29T05:44:54.932Z,66.73
2023-01-29T05:47:25.603Z,66.64
2023-01-29T05:49:56.336Z,66.89
2023-01-29T05:52:27.109Z,66.36
2023-01-29T05:54:57.759Z,66.60
2023-01-29T05:57:28.378Z,66.32
2023-01-29T05:59:59.116Z,66.37
2023-01-29T06:02:32.433Z,66.61
2023-01-29T06:05:03.179Z,66.35
2023-01-29T06:07:33.934Z,66.73
2023-01-29T06:10:05.017Z,66.93
2023-01-29T06:12:35.672Z,66.84
2023-01-29T06:15:07.818Z,66.89
2023-01-29T06:17:38.509Z,66.71
2023-01-29T06:20:13.451Z,66.69
2023-01-29T06:22:44.364Z,67.07
2023-01-29T06:25:15.173Z,66.99
2023-01-29T06:27:45.878Z,67.06
2023-01-29T06:30:18.383Z,67.18
2023-01-29T06:32:49.386Z,66.84
2023-01-29T06:35:20.336Z,66.99
2023-01-29T06:37:51.024Z,67.01
2023-01-29T06:40:22.176Z,67.27
2023-01-29T06:42:52.762Z,67.48
2023-01-29T06:45:24.169Z,67.32
2023-01-29T06:47:54.888Z,67.05
2023-01-29T06:50:25.733Z,67.17
2023-01-29T06:52:56.622Z,66.79
2023-01-29T06:55:27.379Z,66.34
2023-01-29T06:57:58.117Z,66.47
2023-01-29T07:00:30.612Z,66.62
2023-01-29T07:03:02.437Z,66.57
2023-01-29T07:05:33.343Z,67.01
2023-01-29T07:08:04.232Z,66.96
2023-01-29T07:10:35.055Z,66.50
2023-01-29T07:13:05.759Z,67.31
2023-01-29T07:15:37.321Z,67.84
2023-01-29T07:18:12.600Z,67.99
2023-01-29T07:20:44.498Z,67.64
2023-01-29T07:23:17.566Z,68.11
2023-01-29T07:25:49.822Z,68.13
2023-01-29T07:28:21.578Z,67.75
2023-01-29T07:30:56.475Z,68.46
2023-01-29T07:33:27.520Z,67.59
2023-01-29T07:35:58.291Z,67.20
2023-01-29T07:38:29.244Z,66.87
2023-01-29T07:41:01.362Z,66.76
2023-01-29T07:43:33.666Z,67.07
2023-01-29T07:46:06.723Z,66.79
2023-01-29T07:48:37.472Z,66.93
2023-01-29T07:51:08.854Z,67.04
2023-01-29T07:53:39.632Z,66.84
2023-01-29T07:56:10.958Z,66.47
2023-01-29T07:58:41.604Z,66.82
2023-01-29T08:01:12.346Z,66.72
2023-01-29T08:03:43.239Z,66.70
2023-01-29T08:06:13.946Z,66.49
2023-01-29T08:08:44.700Z,66.21
2023-01-29T08:11:15.445Z,66.15
2023-01-29T08:13:50.160Z,65.89
2023-01-29T08:16:21.017Z,66.06
2023-01-29T08:18:51.737Z,66.14
2023-01-29T08:21:22.439Z,66.39
2023-01-29T08:23:53.379Z,66.26
2023-01-29T08:26:26.521Z,65.85
2023-01-29T08:28:57.379Z,65.67
2023-01-29T08:31:28.834Z,66.04
2023-01-29T08:34:22.122Z,65.89
2023-01-29T08:36:55.877Z,65.77
2023-01-29T08:39:26.645Z,65.76
2023-01-29T08:42:00.313Z,65.61
2023-01-29T08:44:39.731Z,66.04
2023-01-29T08:47:12.845Z,66.00
2023-01-29T08:49:43.698Z,66.22
2023-01-29T08:52:14.609Z,65.93
2023-01-29T08:54:45.281Z,66.07
2023-01-29T08:57:15.915Z,66.01
2023-01-29T08:59:46.791Z,65.81
2023-01-29T09:02:17.521Z,65.79
2023-01-29T09:04:48.318Z,65.79
2023-01-29T09:07:21.726Z,65.99
2023-01-29T09:09:52.628Z,66.22
2023-01-29T09:12:23.366Z,66.02
2023-01-29T09:14:54.123Z,65.74
2023-01-29T09:17:24.963Z,65.73
2023-01-29T09:19:55.938Z,65.96
2023-01-29T09:22:26.751Z,66.25
2023-01-29T09:24:57.498Z,66.13
2023-01-29T09:27:28.286Z,65.84
2023-01-29T09:29:59.142Z,65.88
2023-01-29T09:32:52.583Z,65.64
2023-01-29T09:35:19.687Z,65.58
2023-01-29T09:37:52.165Z,65.71
2023-01-29T09:40:28.278Z,65.88
2023-01-29T09:43:03.741Z,65.69
2023-01-29T09:45:35.304Z,65.75
2023-01-29T09:48:12.582Z,65.64
2023-01-29T09:50:48.064Z,66.05
2023-01-29T09:53:22.775Z,66.01
2023-01-29T09:55:57.389Z,66.05
2023-01-29T09:58:33.330Z,66.30
2023-01-29T10:01:13.987Z,66.05
2023-01-29T10:04:03.530Z,66.06
2023-01-29T10:06:49.176Z,65.81
2023-01-29T10:09:34.673Z,65.81
2023-01-29T10:12:16.941Z,65.54
2023-01-29T10:15:00.695Z,65.65
2023-01-29T10:17:57.152Z,65.52
2023-01-29T10:20:58.289Z,65.36
2023-01-29T10:23:34.373Z,65.72
2023-01-29T10:26:05.649Z,65.56
2023-01-29T10:28:43.109Z,65.45
2023-01-29T10:31:19.094Z,65.52
2023-01-29T10:34:08.801Z,64.87
2023-01-29T10:36:46.467Z,65.29
2023-01-29T10:39:21.038Z,65.06
2023-01-29T10:42:05.750Z,65.21
2023-01-29T10:44:51.400Z,65.34
2023-01-29T10:47:48.812Z,65.56
2023-01-29T10:50:26.138Z,65.72
2023-01-29T10:53:13.399Z,65.48
2023-01-29T10:55:55.752Z,65.71
2023-01-29T10:58:35.376Z,65.59
2023-01-29T11:01:06.423Z,65.80
2023-01-29T11:03:37.609Z,66.03
2023-01-29T11:06:15.661Z,66.00
2023-01-29T11:08:53.935Z,65.89
2023-01-29T11:11:33.210Z,66.36
2023-01-29T11:14:09.124Z,67.41
2023-01-29T11:16:47.006Z,67.28
2023-01-29T11:19:18.244Z,67.16
2023-01-29T11:22:01.016Z,66.70
2023-01-29T11:24:31.997Z,66.18
2023-01-29T11:27:04.473Z,65.70
2023-01-29T11:29:40.462Z,65.73
2023-01-29T11:32:25.457Z,65.76
2023-01-29T11:35:05.120Z,66.14
2023-01-29T11:37:38.899Z,65.60
2023-01-29T11:40:34.707Z,65.77
2023-01-29T11:43:19.324Z,65.35
2023-01-29T11:45:51.732Z,65.22
2023-01-29T11:48:25.179Z,65.10
2023-01-29T11:51:00.706Z,65.40
2023-01-29T11:53:39.372Z,65.41
2023-01-29T11:56:21.761Z,65.84
2023-01-29T11:58:53.931Z,65.67
2023-01-29T12:01:34.523Z,65.72
2023-01-29T12:04:15.050Z,65.77
2023-01-29T12:06:51.986Z,65.50
2023-01-29T12:09:27.227Z,65.70
2023-01-29T12:12:17.818Z,65.55
2023-01-29T12:14:48.860Z,65.99
2023-01-29T12:17:26.449Z,66.02
2023-01-29T12:20:00.807Z,65.58
2023-01-29T12:22:41.267Z,65.76
2023-01-29T12:25:23.646Z,65.63
2023-01-29T12:28:00.516Z,65.76
2023-01-29T12:30:39.374Z,65.73
2023-01-29T12:33:19.852Z,65.62
2023-01-29T12:35:54.907Z,65.89
2023-01-29T12:38:26.821Z,66.08
2023-01-29T12:41:07.593Z,65.95
2023-01-29T12:43:42.625Z,66.07
2023-01-29T12:46:23.033Z,66.33
2023-01-29T12:48:58.879Z,65.81
2023-01-29T12:51:34.815Z,66.07
2023-01-29T12:54:09.987Z,65.84
2023-01-29T12:56:47.227Z,65.69
2023-01-29T12:59:29.133Z,65.72
2023-01-29T13:02:07.736Z,65.63
2023-01-29T13:04:43.499Z,66.05
2023-01-29T13:07:19.584Z,65.45
2023-01-29T13:09:54.439Z,65.94
2023-01-29T13:12:26.553Z,65.83
2023-01-29T13:15:01.570Z,66.19
2023-01-29T13:17:38.224Z,66.23
2023-01-29T13:20:17.991Z,66.34
2023-01-29T13:22:49.635Z,66.31
2023-01-29T13:25:21.904Z,66.07
2023-01-29T13:27:52.907Z,65.94
2023-01-29T13:30:32.530Z,65.81
2023-01-29T13:33:12.843Z,65.84
2023-01-29T13:35:46.694Z,65.75
2023-01-29T13:38:30.510Z,66.39
2023-01-29T13:41:04.260Z,65.92
2023-01-29T13:43:38.409Z,66.52
2023-01-29T13:46:14.314Z,66.64
2023-01-29T13:48:47.694Z,66.26
2023-01-29T13:51:23.013Z,66.38
2023-01-29T13:53:58.524Z,66.23
2023-01-29T13:56:43.957Z,66.56
2023-01-29T13:59:46.114Z,66.27
2023-01-29T14:02:28.792Z,66.30
2023-01-29T14:05:30.273Z,66.34
2023-01-29T14:08:01.884Z,66.16
2023-01-29T14:10:34.107Z,66.46
2023-01-29T14:13:36.066Z,66.50
2023-01-29T14:16:35.029Z,66.75
2023-01-29T14:19:07.869Z,66.64
2023-01-29T14:21:39.917Z,66.68
2023-01-29T14:24:20.956Z,66.92
2023-01-29T14:26:57.164Z,66.91
2023-01-29T14:29:35.471Z,67.10
2023-01-29T14:32:19.405Z,67.18
2023-01-29T14:34:52.214Z,67.53
2023-01-29T14:37:33.911Z,67.40
2023-01-29T14:40:21.640Z,67.49
2023-01-29T14:43:01.102Z,67.48
2023-01-29T14:45:34.029Z,67.62
2023-01-29T14:48:35.545Z,67.43
2023-01-29T14:51:12.155Z,67.57
2023-01-29T14:54:03.598Z,67.74
2023-01-29T14:56:38.195Z,67.49
2023-01-29T14:59:20.839Z,67.51
2023-01-29T15:01:56.379Z,67.65
2023-01-29T15:04:30.018Z,67.73
2023-01-29T15:07:06.223Z,67.69
2023-01-29T15:09:43.803Z,67.61
2023-01-29T15:12:24.223Z,67.53
2023-01-29T15:15:04.808Z,67.94
2023-01-29T15:17:43.282Z,67.62
2023-01-29T15:20:35.271Z,67.80
2023-01-29T15:23:25.034Z,67.79
2023-01-29T15:25:59.138Z,67.87
2023-01-29T15:28:32.596Z,67.49
2023-01-29T15:31:05.605Z,67.81
2023-01-29T15:33:38.798Z,67.88
2023-01-29T15:36:18.870Z,67.81
2023-01-29T15:38:49.679Z,67.92
2023-01-29T15:41:23.794Z,68.05
2023-01-29T15:43:59.711Z,68.05
2023-01-29T15:46:33.941Z,68.40
2023-01-29T15:49:10.034Z,68.16
2023-01-29T15:51:41.507Z,68.57
2023-01-29T15:54:15.993Z,67.89
2023-01-29T15:56:51.637Z,68.23
2023-01-29T15:59:26.886Z,68.04
2023-01-29T16:01:58.000Z,68.22
2023-01-29T16:04:31.782Z,67.97
2023-01-29T16:07:04.353Z,68.11
2023-01-29T16:09:35.348Z,68.21
2023-01-29T16:12:07.653Z,67.90
2023-01-29T16:14:39.187Z,67.85
2023-01-29T16:17:28.965Z,68.31
2023-01-29T16:20:00.732Z,68.38
2023-01-29T16:22:35.559Z,67.95
2023-01-29T16:25:09.012Z,68.28
2023-01-29T16:27:43.286Z,67.91
2023-01-29T16:30:17.460Z,68.10
2023-01-29T16:32:48.338Z,68.22
2023-01-29T16:35:20.003Z,68.23
2023-01-29T16:37:52.559Z,68.25
2023-01-29T16:40:32.972Z,68.16
2023-01-29T16:43:49.781Z,67.86
2023-01-29T16:46:25.218Z,68.03
2023-01-29T16:48:56.480Z,68.18
2023-01-29T16:51:32.259Z,68.11
2023-01-29T16:54:08.376Z,68.08
2023-01-29T16:56:40.785Z,67.78
2023-01-29T16:59:21.332Z,67.52
2023-01-29T17:01:52.123Z,67.34
2023-01-29T17:04:23.658Z,67.28
2023-01-29T17:06:58.970Z,67.28
2023-01-29T17:09:32.466Z,67.95
2023-01-29T17:12:06.091Z,67.61
2023-01-29T17:14:38.615Z,67.72
2023-01-29T17:17:16.034Z,67.91
2023-01-29T17:19:47.038Z,67.88
2023-01-29T17:22:17.743Z,67.56
2023-01-29T17:24:51.533Z,67.68
2023-01-29T17:27:23.660Z,67.50
2023-01-29T17:29:54.597Z,67.41
2023-01-29T17:32:45.208Z,67.21
2023-01-29T17:35:19.269Z,67.12
2023-01-29T17:37:50.155Z,66.94
2023-01-29T17:40:32.459Z,67.22
2023-01-29T17:43:03.021Z,66.92
2023-01-29T17:45:33.741Z,67.15
2023-01-29T17:48:04.794Z,67.26
2023-01-29T17:50:39.208Z,66.85
2023-01-29T17:53:09.825Z,66.57
2023-01-29T17:55:40.462Z,66.29
2023-01-29T17:58:15.990Z,66.21
2023-01-29T18:00:46.839Z,66.23
2023-01-29T18:03:17.843Z,66.22
2023-01-29T18:05:50.789Z,66.18
2023-01-29T18:08:27.661Z,66.26
2023-01-29T18:10:58.455Z,66.28
2023-01-29T18:13:29.559Z,66.02
2023-01-29T18:16:00.440Z,65.91
2023-01-29T18:18:31.045Z,65.89
2023-01-29T18:21:01.736Z,66.13
2023-01-29T18:23:33.200Z,66.15
2023-01-29T18:26:04.114Z,66.08
2023-01-29T18:28:34.983Z,65.78
2023-01-29T18:31:06.475Z,65.95
2023-01-29T18:33:37.920Z,65.98
2023-01-29T18:36:10.587Z,65.93
2023-01-29T18:38:41.408Z,65.83
2023-01-29T18:41:13.464Z,65.52
2023-01-29T18:43:44.382Z,65.52
2023-01-29T18:46:15.306Z,65.59
2023-01-29T18:48:46.211Z,66.10
2023-01-29T18:51:16.898Z,66.04
2023-01-29T18:53:52.238Z,66.19
2023-01-29T18:56:23.039Z,66.27
2023-01-29T18:58:57.255Z,66.27
2023-01-29T19:01:27.893Z,66.32
2023-01-29T19:04:00.280Z,66.63
2023-01-29T19:06:31.378Z,66.71
2023-01-29T19:09:02.002Z,66.69
2023-01-29T19:11:32.673Z,66.83
2023-01-29T19:14:03.270Z,66.78
2023-01-29T19:16:34.088Z,66.89
2023-01-29T19:19:04.933Z,66.77
2023-01-29T19:21:37.194Z,66.76
2023-01-29T19:24:11.721Z,67.09
2023-01-29T19:26:42.405Z,67.06
2023-01-29T19:29:13.375Z,66.80
2023-01-29T19:31:44.147Z,66.97
2023-01-29T19:34:15.067Z,66.86
2023-01-29T19:36:45.838Z,66.71
2023-01-29T19:39:16.851Z,66.41
2023-01-29T19:41:47.462Z,66.59
2023-01-29T19:44:18.149Z,66.53
2023-01-29T19:46:48.842Z,66.71
2023-01-29T19:49:19.742Z,66.70
2023-01-29T19:51:50.386Z,66.58
2023-01-29T19:54:22.080Z,66.65
2023-01-29T19:56:53.445Z,66.74
2023-01-29T19:59:24.494Z,66.91
2023-01-29T20:01:55.303Z,66.59
2023-01-29T20:04:27.063Z,66.63
2023-01-29T20:06:57.874Z,66.50
2023-01-29T20:09:30.440Z,66.59
2023-01-29T20:12:01.404Z,66.31
2023-01-29T20:14:32.475Z,66.17
2023-01-29T20:17:03.752Z,66.04
2023-01-29T20:19:34.865Z,66.23
2023-01-29T20:22:06.745Z,66.23
2023-01-29T20:24:42.114Z,66.20
2023-01-29T20:27:16.009Z,66.15
2023-01-29T20:29:46.685Z,65.92
2023-01-29T20:32:17.482Z,65.77
2023-01-29T20:34:52.051Z,65.80
2023-01-29T20:37:23.104Z,65.71
2023-01-29T20:39:54.094Z,66.00
2023-01-29T20:42:24.854Z,66.30
2023-01-29T20:44:55.816Z,66.15
2023-01-29T20:47:26.759Z,66.08
2023-01-29T20:50:00.071Z,66.12
2023-01-29T20:52:29.374Z,66.26
2023-01-29T20:55:00.334Z,66.12
2023-01-29T20:57:31.208Z,66.57
2023-01-29T21:00:01.964Z,66.56
2023-01-29T21:02:33.877Z,66.41
2023-01-29T21:05:06.480Z,66.38
2023-01-29T21:07:37.303Z,66.40
2023-01-29T21:10:11.842Z,66.44
2023-01-29T21:12:42.665Z,66.17
2023-01-29T21:15:14.285Z,66.45
2023-01-29T21:17:44.948Z,66.40
2023-01-29T21:20:17.180Z,66.41
2023-01-29T21:22:49.257Z,66.22
2023-01-29T21:25:21.635Z,66.29
2023-01-29T21:27:52.593Z,67.30
2023-01-29T21:30:24.055Z,67.13
2023-01-29T21:32:55.003Z,66.79
2023-01-29T21:35:25.892Z,66.66
2023-01-29T21:37:57.455Z,66.98
2023-01-29T21:40:30.609Z,66.90
2023-01-29T21:43:13.472Z,66.80
2023-01-29T21:45:45.313Z,66.67
2023-01-29T21:48:16.138Z,66.69
2023-01-29T21:50:48.729Z,66.36
2023-01-29T21:53:22.526Z,66.85
2023-01-29T21:55:53.874Z,66.66
2023-01-29T21:58:24.873Z,66.18
2023-01-29T22:00:55.908Z,66.30
2023-01-29T22:03:26.809Z,66.06
2023-01-29T22:05:57.601Z,66.05
2023-01-29T22:08:28.698Z,66.08
2023-01-29T22:10:59.873Z,65.70
2023-01-29T22:13:31.081Z,65.97
2023-01-29T22:16:02.695Z,65.97
2023-01-29T22:18:33.477Z,66.33
2023-01-29T22:21:04.967Z,65.84
2023-01-29T22:23:35.824Z,65.64
2023-01-29T22:26:08.993Z,65.86
2023-01-29T22:28:39.928Z,65.41
2023-01-29T22:31:11.244Z,65.48
2023-01-29T22:33:42.335Z,65.64
2023-01-29T22:36:13.433Z,65.76
2023-01-29T22:38:45.959Z,65.47
2023-01-29T22:41:19.260Z,65.41
2023-01-29T22:43:48.483Z,65.38
2023-01-29T22:46:19.206Z,65.06
2023-01-29T22:48:50.285Z,65.43
2023-01-29T22:51:21.630Z,65.85
2023-01-29T22:53:53.857Z,66.25
2023-01-29T22:56:26.545Z,65.39
2023-01-29T22:58:58.881Z,65.70
2023-01-29T23:01:31.394Z,65.45
2023-01-29T23:04:02.144Z,65.24
2023-01-29T23:06:32.997Z,65.23
2023-01-29T23:09:03.700Z,65.49
2023-01-29T23:11:34.521Z,65.65
2023-01-29T23:14:05.332Z,65.55
2023-01-29T23:16:36.290Z,65.61
2023-01-29T23:19:07.535Z,65.61
2023-01-29T23:21:38.394Z,65.58
2023-01-29T23:24:11.594Z,65.14
2023-01-29T23:27:00.108Z,65.51
2023-01-29T23:29:30.786Z,65.18
2023-01-29T23:32:01.453Z,65.32
2023-01-29T23:34:32.321Z,65.36
2023-01-29T23:37:03.118Z,65.47
2023-01-29T23:39:34.190Z,65.18
2023-01-29T23:42:05.329Z,65.36
2023-01-29T23:44:36.158Z,65.26
2023-01-29T23:47:07.164Z,65.23
2023-01-29T23:49:38.523Z,65.22
2023-01-29T23:52:09.481Z,65.06
2023-01-29T23:54:42.560Z,65.59
2023-01-29T23:57:13.212Z,65.59
2023-01-29T23:59:44.069Z,65.55
